createdAt,value
2017-03-09T00:01:06.249Z,0
2017-03-09T00:02:19.600Z,0
2017-03-09T00:03:33.110Z,0
2017-03-09T00:04:46.454Z,0
2017-03-09T00:05:59.777Z,0
2017-03-09T00:07:13.327Z,0
2017-03-09T00:08:27.831Z,0
2017-03-09T00:09:41.168Z,0
2017-03-09T00:10:54.498Z,0
2017-03-09T00:12:07.841Z,0
2017-03-09T00:13:21.161Z,0
2017-03-09T00:14:34.489Z,0
2017-03-09T00:15:47.243Z,0
2017-03-09T00:17:00.596Z,0
2017-03-09T00:18:13.905Z,0
2017-03-09T00:19:27.501Z,0
2017-03-09T00:20:40.808Z,0
2017-03-09T00:21:54.160Z,0
2017-03-09T00:23:08.118Z,0
2017-03-09T00:24:21.446Z,0
2017-03-09T00:25:34.343Z,0
2017-03-09T00:27:01.737Z,0
2017-03-09T00:28:15.085Z,0
2017-03-09T00:29:28.401Z,0
2017-03-09T00:30:41.470Z,0
2017-03-09T00:31:54.226Z,0
2017-03-09T00:33:07.533Z,0
2017-03-09T00:34:34.800Z,0
2017-03-09T00:35:48.149Z,0
2017-03-09T00:37:01.463Z,0
2017-03-09T00:38:14.223Z,0
2017-03-09T00:39:27.584Z,0
2017-03-09T00:40:40.916Z,0
2017-03-09T00:41:54.248Z,0
2017-03-09T00:43:07.585Z,0
2017-03-09T00:44:20.925Z,0
2017-03-09T00:45:34.266Z,0
2017-03-09T00:46:47.583Z,0
2017-03-09T00:48:00.923Z,0
2017-03-09T00:49:28.183Z,0
2017-03-09T00:50:41.505Z,0
2017-03-09T00:52:08.988Z,0
2017-03-09T00:53:22.343Z,0
2017-03-09T00:54:35.658Z,0
2017-03-09T00:55:49.018Z,0
2017-03-09T00:57:02.561Z,0
2017-03-09T00:58:15.322Z,0
2017-03-09T00:59:28.629Z,0
2017-03-09T01:00:41.998Z,0
2017-03-09T01:01:55.385Z,0
2017-03-09T01:03:08.733Z,0
2017-03-09T01:04:22.097Z,0
2017-03-09T01:05:35.449Z,0
2017-03-09T01:06:48.791Z,0
2017-03-09T01:08:02.305Z,0
2017-03-09T01:11:10.850Z,0
2017-03-09T01:12:24.171Z,0
2017-03-09T01:13:37.503Z,0
2017-03-09T01:14:50.915Z,0
2017-03-09T01:16:04.452Z,0
2017-03-09T01:17:17.221Z,0
2017-03-09T01:18:30.527Z,0
2017-03-09T01:19:43.869Z,0
2017-03-09T01:20:57.211Z,0
2017-03-09T01:22:24.510Z,0
2017-03-09T01:23:37.268Z,0
2017-03-09T01:24:50.592Z,0
2017-03-09T01:26:03.390Z,0
2017-03-09T01:27:16.743Z,0
2017-03-09T01:28:30.117Z,0
2017-03-09T01:31:10.954Z,0
2017-03-09T01:32:23.830Z,0
2017-03-09T01:33:51.124Z,0
2017-03-09T01:35:04.457Z,0
2017-03-09T01:36:17.788Z,0
2017-03-09T01:37:30.565Z,0
2017-03-09T01:38:43.921Z,0
2017-03-09T01:39:57.231Z,0
2017-03-09T01:41:10.629Z,0
2017-03-09T01:42:23.939Z,0
2017-03-09T01:43:36.722Z,0
2017-03-09T01:44:50.062Z,0
2017-03-09T01:46:03.413Z,0
2017-03-09T01:47:16.750Z,0
2017-03-09T01:48:29.514Z,0
2017-03-09T01:49:42.874Z,0
2017-03-09T01:50:56.424Z,0
2017-03-09T01:52:09.770Z,0
2017-03-09T01:53:23.135Z,0
2017-03-09T01:54:36.516Z,0
2017-03-09T01:55:49.880Z,0
2017-03-09T01:57:03.408Z,0
2017-03-09T01:58:16.180Z,0
2017-03-09T01:59:29.492Z,0
2017-03-09T02:00:42.841Z,0
2017-03-09T02:01:56.392Z,0
2017-03-09T02:03:23.695Z,0
2017-03-09T02:04:37.243Z,0
2017-03-09T02:06:04.541Z,0
2017-03-09T02:07:18.094Z,0
2017-03-09T02:08:31.649Z,0
2017-03-09T02:09:45.169Z,0
2017-03-09T02:10:58.513Z,0
2017-03-09T02:12:12.019Z,0
2017-03-09T02:13:24.978Z,0
2017-03-09T02:14:38.299Z,0
2017-03-09T02:16:05.589Z,0
2017-03-09T02:17:18.059Z,0
2017-03-09T02:18:31.404Z,0
2017-03-09T02:19:44.751Z,0
2017-03-09T02:20:58.116Z,0
2017-03-09T02:22:11.452Z,0
2017-03-09T02:23:24.222Z,0
2017-03-09T02:24:51.528Z,0
2017-03-09T02:26:04.856Z,0
2017-03-09T02:27:17.726Z,0
2017-03-09T02:28:31.501Z,0
2017-03-09T02:29:45.091Z,0
2017-03-09T02:30:58.853Z,0
2017-03-09T02:32:26.169Z,0
2017-03-09T02:33:39.679Z,0
2017-03-09T02:34:53.448Z,0
2017-03-09T02:36:20.879Z,0
2017-03-09T02:37:33.646Z,0
2017-03-09T02:38:46.660Z,0
2017-03-09T02:40:00.052Z,0
2017-03-09T02:41:13.401Z,0
2017-03-09T02:42:26.183Z,0
2017-03-09T02:43:40.707Z,0
2017-03-09T02:44:54.071Z,0
2017-03-09T02:46:06.817Z,0
2017-03-09T02:47:20.161Z,0
2017-03-09T02:48:33.500Z,0
2017-03-09T02:49:46.833Z,0
2017-03-09T02:51:00.176Z,0
2017-03-09T02:52:13.541Z,0
2017-03-09T02:53:26.881Z,0
2017-03-09T02:54:39.680Z,0
2017-03-09T02:55:53.046Z,0
2017-03-09T02:57:05.819Z,0
2017-03-09T02:58:19.151Z,0
2017-03-09T02:59:32.498Z,0
2017-03-09T03:00:45.427Z,0
2017-03-09T03:01:58.979Z,0
2017-03-09T03:03:12.319Z,0
2017-03-09T03:04:25.667Z,0
2017-03-09T03:05:39.235Z,0
2017-03-09T03:06:52.026Z,0
2017-03-09T03:08:04.784Z,0
2017-03-09T03:09:18.120Z,0
2017-03-09T03:10:30.876Z,0
2017-03-09T03:11:43.815Z,0
2017-03-09T03:12:57.153Z,0
2017-03-09T03:14:10.493Z,0
2017-03-09T03:15:23.831Z,0
2017-03-09T03:16:37.355Z,0
2017-03-09T03:17:50.152Z,0
2017-03-09T03:19:17.468Z,0
2017-03-09T03:20:30.842Z,0
2017-03-09T03:21:44.490Z,0
2017-03-09T03:22:58.003Z,0
2017-03-09T03:24:11.519Z,0
2017-03-09T03:25:23.713Z,0
2017-03-09T03:26:37.269Z,0
2017-03-09T03:27:50.568Z,0
2017-03-09T03:29:03.976Z,0
2017-03-09T03:30:16.732Z,0
2017-03-09T03:31:29.491Z,0
2017-03-09T03:32:42.235Z,0
2017-03-09T03:33:55.577Z,0
2017-03-09T03:35:08.935Z,0
2017-03-09T03:36:22.283Z,0
2017-03-09T03:37:35.621Z,0
2017-03-09T03:38:48.351Z,0
2017-03-09T03:40:02.132Z,0
2017-03-09T03:41:15.470Z,0
2017-03-09T03:42:28.796Z,0
2017-03-09T03:43:42.346Z,0
2017-03-09T03:44:55.656Z,0
2017-03-09T03:46:08.978Z,0
2017-03-09T03:47:22.320Z,0
2017-03-09T03:48:35.677Z,0
2017-03-09T03:49:49.001Z,0
2017-03-09T03:51:02.306Z,0
2017-03-09T03:52:15.645Z,0
2017-03-09T03:53:28.390Z,0
2017-03-09T03:54:41.937Z,0
2017-03-09T03:55:55.238Z,0
2017-03-09T03:57:08.582Z,0
2017-03-09T03:58:21.921Z,0
2017-03-09T03:59:35.233Z,0
2017-03-09T04:00:48.577Z,0
2017-03-09T04:02:01.898Z,0
2017-03-09T04:03:15.934Z,0
2017-03-09T04:04:29.282Z,0
2017-03-09T04:05:42.258Z,0
2017-03-09T04:07:23.540Z,0
2017-03-09T04:08:36.846Z,0
2017-03-09T04:09:50.160Z,0
2017-03-09T04:11:03.171Z,0
2017-03-09T04:12:30.476Z,0
2017-03-09T04:13:43.780Z,0
2017-03-09T04:14:57.105Z,0
2017-03-09T04:16:10.441Z,0
2017-03-09T04:17:23.764Z,0
2017-03-09T04:18:37.097Z,0
2017-03-09T04:19:50.412Z,0
2017-03-09T04:21:03.963Z,0
2017-03-09T04:22:17.300Z,0
2017-03-09T04:23:30.619Z,0
2017-03-09T04:24:57.895Z,0
2017-03-09T04:26:11.228Z,0
2017-03-09T04:27:24.528Z,0
2017-03-09T04:28:51.800Z,0
2017-03-09T04:30:05.132Z,0
2017-03-09T04:31:17.871Z,0
2017-03-09T04:32:30.033Z,0
2017-03-09T04:33:43.363Z,0
2017-03-09T04:34:56.653Z,0
2017-03-09T04:36:09.680Z,0
2017-03-09T04:37:22.415Z,0
2017-03-09T04:38:35.728Z,0
2017-03-09T04:39:49.056Z,0
2017-03-09T04:41:03.106Z,0
2017-03-09T04:42:15.840Z,0
2017-03-09T04:43:28.578Z,0
2017-03-09T04:44:41.299Z,0
2017-03-09T04:45:54.629Z,0
2017-03-09T04:47:08.229Z,0
2017-03-09T04:48:35.499Z,0
2017-03-09T04:49:48.807Z,0
2017-03-09T04:51:02.134Z,0
2017-03-09T04:52:15.434Z,0
2017-03-09T04:53:28.722Z,0
2017-03-09T04:54:42.031Z,0
2017-03-09T04:57:22.209Z,0
2017-03-09T04:58:35.497Z,0
2017-03-09T04:59:48.782Z,0
2017-03-09T05:01:02.084Z,0
2017-03-09T05:02:15.359Z,0
2017-03-09T05:03:28.648Z,0
2017-03-09T05:04:41.937Z,0
2017-03-09T05:05:55.235Z,0
2017-03-09T05:07:08.532Z,0
2017-03-09T05:08:35.984Z,0
2017-03-09T05:10:03.232Z,0
2017-03-09T05:11:30.493Z,0
2017-03-09T05:12:43.776Z,0
2017-03-09T05:13:57.256Z,0
2017-03-09T05:15:10.551Z,0
2017-03-09T05:16:23.860Z,0
2017-03-09T05:17:50.540Z,0
2017-03-09T05:19:03.820Z,0
2017-03-09T05:20:17.115Z,0
2017-03-09T05:21:43.813Z,0
2017-03-09T05:23:11.063Z,0
2017-03-09T05:24:24.343Z,0
2017-03-09T05:25:37.650Z,0
2017-03-09T05:26:50.385Z,0
2017-03-09T05:28:03.665Z,0
2017-03-09T05:29:17.145Z,0
2017-03-09T05:30:29.861Z,0
2017-03-09T05:31:42.566Z,0
2017-03-09T05:32:55.290Z,0
2017-03-09T05:34:08.574Z,0
2017-03-09T05:35:22.140Z,0
2017-03-09T05:36:34.856Z,0
2017-03-09T05:37:48.122Z,0
2017-03-09T05:39:01.400Z,0
2017-03-09T05:40:14.137Z,0
2017-03-09T05:41:27.437Z,0
2017-03-09T05:42:40.707Z,0
2017-03-09T05:43:53.431Z,0
2017-03-09T05:45:06.755Z,0
2017-03-09T05:46:20.220Z,0
2017-03-09T05:47:32.920Z,0
2017-03-09T05:48:46.202Z,0
2017-03-09T05:49:58.905Z,0
2017-03-09T05:51:11.829Z,0
2017-03-09T05:52:25.104Z,0
2017-03-09T05:53:38.412Z,0
2017-03-09T05:54:51.711Z,0
2017-03-09T05:56:05.002Z,0
2017-03-09T05:57:18.571Z,0
2017-03-09T05:58:31.856Z,0
2017-03-09T05:59:45.157Z,0
2017-03-09T06:00:57.889Z,0
2017-03-09T06:02:11.367Z,0
2017-03-09T06:03:24.653Z,0
2017-03-09T06:04:37.929Z,0
2017-03-09T06:05:51.193Z,0
2017-03-09T06:07:04.472Z,0
2017-03-09T06:08:17.413Z,0
2017-03-09T06:09:30.120Z,0
2017-03-09T06:12:10.128Z,0
2017-03-09T06:13:23.615Z,0
2017-03-09T06:14:36.314Z,0
2017-03-09T06:15:49.034Z,0
2017-03-09T06:17:16.286Z,0
2017-03-09T06:18:29.299Z,0
2017-03-09T06:19:42.588Z,0
2017-03-09T06:20:55.884Z,0
2017-03-09T06:22:08.583Z,0
2017-03-09T06:23:36.162Z,0
2017-03-09T06:24:49.435Z,0
2017-03-09T06:26:02.709Z,0
2017-03-09T06:27:15.430Z,0
2017-03-09T06:28:28.737Z,0
2017-03-09T06:29:42.232Z,0
2017-03-09T06:30:55.498Z,0
2017-03-09T06:32:08.787Z,0
2017-03-09T06:33:21.490Z,0
2017-03-09T06:34:34.757Z,0
2017-03-09T06:35:48.030Z,0
2017-03-09T06:37:01.314Z,0
2017-03-09T06:38:14.592Z,0
2017-03-09T06:39:27.288Z,0
2017-03-09T06:40:40.880Z,0
2017-03-09T06:41:53.607Z,0
2017-03-09T06:43:06.879Z,0
2017-03-09T06:44:20.168Z,0
2017-03-09T06:45:47.411Z,0
2017-03-09T06:47:00.703Z,0
2017-03-09T06:48:13.427Z,0
2017-03-09T06:49:26.192Z,0
2017-03-09T06:50:38.887Z,0
2017-03-09T06:52:05.576Z,0
2017-03-09T06:53:18.856Z,0
2017-03-09T06:54:32.142Z,0
2017-03-09T06:55:45.435Z,0
2017-03-09T06:56:58.719Z,0
2017-03-09T06:58:12.006Z,0
2017-03-09T06:59:24.729Z,0
2017-03-09T07:00:38.005Z,0
2017-03-09T07:01:50.752Z,0
2017-03-09T07:03:03.470Z,0
2017-03-09T07:04:16.740Z,0
2017-03-09T07:05:30.029Z,0
2017-03-09T07:06:43.092Z,0
2017-03-09T07:07:56.388Z,0
2017-03-09T07:09:09.670Z,0
2017-03-09T07:10:22.979Z,0
2017-03-09T07:11:36.453Z,0
2017-03-09T07:12:49.766Z,0
2017-03-09T07:14:03.039Z,0
2017-03-09T07:15:16.339Z,0
2017-03-09T07:17:56.876Z,0
2017-03-09T07:19:09.594Z,0
2017-03-09T07:20:22.860Z,0
2017-03-09T07:21:35.593Z,0
2017-03-09T07:22:48.873Z,0
2017-03-09T07:24:15.564Z,0
2017-03-09T07:25:42.808Z,0
2017-03-09T07:26:56.099Z,0
2017-03-09T07:28:09.362Z,0
2017-03-09T07:29:22.083Z,0
2017-03-09T07:30:34.802Z,0
2017-03-09T07:31:47.515Z,0
2017-03-09T07:33:14.769Z,0
2017-03-09T07:34:27.474Z,0
2017-03-09T07:35:40.753Z,0
2017-03-09T07:36:54.022Z,0
2017-03-09T07:38:07.290Z,0
2017-03-09T07:39:20.782Z,0
2017-03-09T07:40:34.052Z,0
2017-03-09T07:41:47.327Z,0
2017-03-09T07:43:00.598Z,0
2017-03-09T07:44:14.164Z,0
2017-03-09T07:45:26.862Z,0
2017-03-09T07:46:40.153Z,0
2017-03-09T07:47:53.456Z,0
2017-03-09T07:49:06.727Z,0
2017-03-09T07:50:20.017Z,0
2017-03-09T07:51:46.692Z,0
2017-03-09T07:52:59.963Z,0
2017-03-09T07:54:13.250Z,0
2017-03-09T07:55:26.266Z,0
2017-03-09T07:56:38.983Z,0
2017-03-09T07:57:52.248Z,0
2017-03-09T07:59:04.976Z,0
2017-03-09T08:00:17.693Z,0
2017-03-09T08:01:30.397Z,0
2017-03-09T08:04:10.912Z,0
2017-03-09T08:05:38.186Z,0
2017-03-09T08:08:18.756Z,0
2017-03-09T08:09:32.040Z,0
2017-03-09T08:10:45.638Z,0
2017-03-09T08:11:58.916Z,0
2017-03-09T08:13:12.184Z,0
2017-03-09T08:14:24.890Z,0
2017-03-09T08:15:38.368Z,0
2017-03-09T08:16:51.659Z,0
2017-03-09T08:18:04.954Z,0
2017-03-09T08:19:18.242Z,0
2017-03-09T08:20:30.936Z,0
2017-03-09T08:21:43.960Z,0
2017-03-09T08:22:56.670Z,0
2017-03-09T08:24:09.962Z,0
2017-03-09T08:25:23.242Z,0
2017-03-09T08:26:35.960Z,0
2017-03-09T08:27:49.256Z,0
2017-03-09T08:29:16.530Z,0
2017-03-09T08:30:29.248Z,0
2017-03-09T08:31:42.760Z,0
2017-03-09T08:32:56.043Z,0
2017-03-09T08:34:09.312Z,0
2017-03-09T08:35:22.606Z,0
2017-03-09T08:36:35.899Z,0
2017-03-09T08:40:22.860Z,0
2017-03-09T08:41:36.176Z,0
2017-03-09T08:42:49.449Z,0
2017-03-09T08:44:02.726Z,0
2017-03-09T08:45:16.027Z,0
2017-03-09T08:46:26.170Z,0
2017-03-09T08:49:06.901Z,0
2017-03-09T08:50:20.195Z,0
2017-03-09T08:51:33.485Z,0
2017-03-09T08:52:46.238Z,0
2017-03-09T08:53:59.736Z,0
2017-03-09T08:55:13.000Z,0
2017-03-09T08:56:26.284Z,0
2017-03-09T08:57:39.593Z,0
2017-03-09T08:58:52.873Z,0
2017-03-09T09:00:06.354Z,0
2017-03-09T09:01:19.659Z,0
2017-03-09T09:02:32.938Z,0
2017-03-09T09:03:46.226Z,0
2017-03-09T09:04:59.725Z,0
2017-03-09T09:06:12.430Z,0
2017-03-09T09:07:25.704Z,0
2017-03-09T09:08:38.990Z,0
2017-03-09T09:09:52.292Z,0
2017-03-09T09:11:05.877Z,0
2017-03-09T09:12:19.162Z,0
2017-03-09T09:13:31.874Z,0
2017-03-09T09:14:58.611Z,0
2017-03-09T09:16:12.189Z,0
2017-03-09T09:17:25.459Z,0
2017-03-09T09:18:38.171Z,0
2017-03-09T09:19:51.482Z,0
2017-03-09T09:21:04.957Z,0
2017-03-09T09:22:18.240Z,0
2017-03-09T09:23:31.527Z,0
2017-03-09T09:24:44.224Z,0
2017-03-09T09:25:57.506Z,0
2017-03-09T09:27:10.769Z,0
2017-03-09T09:28:24.053Z,0
2017-03-09T09:29:37.329Z,0
2017-03-09T09:30:50.620Z,0
2017-03-09T09:32:03.359Z,0
2017-03-09T09:33:16.641Z,0
2017-03-09T09:34:29.912Z,0
2017-03-09T09:35:42.612Z,0
2017-03-09T09:36:55.892Z,0
2017-03-09T09:38:09.182Z,0
2017-03-09T09:39:22.450Z,0
2017-03-09T09:40:35.740Z,5
2017-03-09T09:41:49.014Z,5
2017-03-09T09:43:02.292Z,5
2017-03-09T09:44:15.571Z,0
2017-03-09T09:45:28.307Z,0
2017-03-09T09:46:41.576Z,5
2017-03-09T09:49:22.305Z,5
2017-03-09T09:50:35.018Z,5
2017-03-09T09:51:48.294Z,5
2017-03-09T09:53:00.998Z,5
2017-03-09T09:54:13.717Z,5
2017-03-09T09:55:26.984Z,5
2017-03-09T09:56:39.694Z,5
2017-03-09T09:57:52.978Z,5
2017-03-09T09:59:05.694Z,5
2017-03-09T10:00:18.414Z,5
2017-03-09T10:01:31.137Z,5
2017-03-09T10:02:44.408Z,10
2017-03-09T10:03:57.699Z,5
2017-03-09T10:05:10.613Z,5
2017-03-09T10:06:23.896Z,10
2017-03-09T10:07:37.174Z,10
2017-03-09T10:08:50.453Z,10
2017-03-09T10:10:03.742Z,10
2017-03-09T10:12:58.549Z,10
2017-03-09T10:14:11.830Z,10
2017-03-09T10:15:25.103Z,10
2017-03-09T10:16:38.712Z,10
2017-03-09T10:17:51.425Z,10
2017-03-09T10:19:04.722Z,10
2017-03-09T10:20:17.998Z,10
2017-03-09T10:21:30.724Z,10
2017-03-09T10:22:44.011Z,10
2017-03-09T10:23:57.309Z,10
2017-03-09T10:25:10.624Z,10
2017-03-09T10:26:23.331Z,10
2017-03-09T10:27:36.608Z,10
2017-03-09T10:28:49.895Z,15
2017-03-09T10:30:03.194Z,10
2017-03-09T10:31:16.480Z,10
2017-03-09T10:32:29.778Z,15
2017-03-09T10:33:57.024Z,10
2017-03-09T10:35:10.313Z,10
2017-03-09T10:36:23.045Z,10
2017-03-09T10:37:50.303Z,10
2017-03-09T10:39:03.615Z,10
2017-03-09T10:40:16.885Z,10
2017-03-09T10:41:30.170Z,10
2017-03-09T10:42:43.505Z,10
2017-03-09T10:43:56.797Z,10
2017-03-09T10:45:10.093Z,10
2017-03-09T10:46:23.378Z,10
2017-03-09T10:47:36.867Z,5
2017-03-09T10:48:50.439Z,10
2017-03-09T10:50:03.988Z,10
2017-03-09T10:51:17.494Z,10
2017-03-09T10:52:30.451Z,10
2017-03-09T10:53:43.597Z,10
2017-03-09T10:55:10.542Z,10
2017-03-09T10:56:24.144Z,10
2017-03-09T10:57:37.782Z,10
2017-03-09T10:58:51.293Z,10
2017-03-09T11:00:18.864Z,10
2017-03-09T11:01:32.194Z,10
2017-03-09T11:02:44.941Z,10
2017-03-09T11:03:58.557Z,10
2017-03-09T11:05:11.836Z,10
2017-03-09T11:06:25.136Z,10
2017-03-09T11:07:38.445Z,10
2017-03-09T11:08:51.723Z,10
2017-03-09T11:10:05.011Z,10
2017-03-09T11:11:17.720Z,10
2017-03-09T11:12:44.985Z,10
2017-03-09T11:13:57.859Z,10
2017-03-09T11:15:11.152Z,15
2017-03-09T11:16:24.446Z,15
2017-03-09T11:17:37.148Z,15
2017-03-09T11:18:50.417Z,15
2017-03-09T11:20:17.665Z,10
2017-03-09T11:21:30.376Z,10
2017-03-09T11:22:57.644Z,10
2017-03-09T11:24:10.945Z,10
2017-03-09T11:25:24.411Z,10
2017-03-09T11:26:37.118Z,10
2017-03-09T11:27:50.394Z,10
2017-03-09T11:29:03.681Z,10
2017-03-09T11:30:30.928Z,10
2017-03-09T11:31:44.219Z,15
2017-03-09T11:32:57.496Z,10
2017-03-09T11:34:10.774Z,10
2017-03-09T11:35:24.073Z,10
2017-03-09T11:36:51.524Z,10
2017-03-09T11:38:04.821Z,10
2017-03-09T11:39:32.093Z,10
2017-03-09T11:40:44.806Z,10
2017-03-09T11:41:58.132Z,10
2017-03-09T11:43:25.406Z,10
2017-03-09T11:44:38.156Z,15
2017-03-09T11:45:51.527Z,15
2017-03-09T11:47:05.131Z,10
2017-03-09T11:48:32.383Z,10
2017-03-09T11:49:45.669Z,10
2017-03-09T11:50:58.407Z,10
2017-03-09T11:52:11.693Z,10
2017-03-09T11:53:38.395Z,15
2017-03-09T11:54:51.680Z,15
2017-03-09T11:56:04.977Z,15
2017-03-09T11:57:17.938Z,15
2017-03-09T11:58:31.241Z,15
2017-03-09T11:59:57.922Z,15
2017-03-09T12:01:11.203Z,15
2017-03-09T12:02:24.509Z,15
2017-03-09T12:03:37.795Z,15
2017-03-09T12:04:51.095Z,15
2017-03-09T12:06:04.374Z,15
2017-03-09T12:07:17.869Z,15
2017-03-09T12:08:31.179Z,15
2017-03-09T12:09:43.881Z,15
2017-03-09T12:10:56.613Z,20
2017-03-09T12:12:10.130Z,15
2017-03-09T12:13:23.441Z,15
2017-03-09T12:16:17.839Z,15
2017-03-09T12:17:31.139Z,20
2017-03-09T12:18:43.847Z,20
2017-03-09T12:19:57.138Z,20
2017-03-09T12:21:10.483Z,20
2017-03-09T12:22:23.223Z,20
2017-03-09T12:23:36.971Z,15
2017-03-09T12:24:50.283Z,15
2017-03-09T12:26:03.136Z,15
2017-03-09T12:27:16.567Z,15
2017-03-09T12:28:29.556Z,20
2017-03-09T12:29:43.049Z,25
2017-03-09T12:30:56.582Z,25
2017-03-09T12:32:38.042Z,30
2017-03-09T12:33:50.942Z,30
2017-03-09T12:35:18.297Z,35
2017-03-09T12:36:31.263Z,40
2017-03-09T12:37:44.202Z,40
2017-03-09T12:38:57.752Z,40
2017-03-09T12:40:10.640Z,45
2017-03-09T12:41:24.206Z,45
2017-03-09T12:42:37.717Z,50
2017-03-09T12:43:51.149Z,45
2017-03-09T12:45:04.458Z,50
2017-03-09T12:46:17.182Z,50
2017-03-09T12:47:30.469Z,55
2017-03-09T12:48:43.195Z,55
2017-03-09T12:49:56.493Z,55
2017-03-09T12:51:09.404Z,55
2017-03-09T12:52:22.110Z,55
2017-03-09T12:53:34.832Z,55
2017-03-09T12:54:48.103Z,55
2017-03-09T12:56:01.570Z,55
2017-03-09T12:57:14.887Z,55
2017-03-09T12:58:28.189Z,60
2017-03-09T12:59:40.895Z,55
2017-03-09T13:00:54.186Z,60
2017-03-09T13:02:07.764Z,60
2017-03-09T13:03:21.036Z,60
2017-03-09T13:04:34.318Z,60
2017-03-09T13:05:47.024Z,60
2017-03-09T13:07:00.290Z,65
2017-03-09T13:08:13.579Z,70
2017-03-09T13:09:26.322Z,65
2017-03-09T13:12:07.145Z,70
2017-03-09T13:13:20.447Z,65
2017-03-09T13:14:47.714Z,65
2017-03-09T13:16:00.990Z,30
2017-03-09T13:17:13.710Z,25
2017-03-09T13:18:26.999Z,70
2017-03-09T13:19:53.706Z,45
2017-03-09T13:21:06.416Z,70
2017-03-09T13:22:19.708Z,65
2017-03-09T13:23:33.021Z,70
2017-03-09T13:24:59.722Z,70
2017-03-09T13:26:12.463Z,70
2017-03-09T13:27:25.785Z,65
2017-03-09T13:28:39.073Z,70
2017-03-09T13:30:06.541Z,70
2017-03-09T13:31:32.685Z,70
2017-03-09T13:32:45.981Z,75
2017-03-09T13:33:59.279Z,70
2017-03-09T13:35:13.363Z,70
2017-03-09T13:36:26.159Z,70
2017-03-09T13:37:39.665Z,70
2017-03-09T13:38:52.996Z,65
2017-03-09T13:40:06.295Z,70
2017-03-09T13:41:19.028Z,70
2017-03-09T13:42:31.751Z,70
2017-03-09T13:43:45.062Z,70
2017-03-09T13:44:57.768Z,70
2017-03-09T13:46:24.456Z,70
2017-03-09T13:47:37.754Z,35
2017-03-09T13:48:50.490Z,70
2017-03-09T13:50:03.933Z,70
2017-03-09T13:51:17.297Z,70
2017-03-09T13:52:30.007Z,70
2017-03-09T13:53:57.288Z,30
2017-03-09T13:55:10.598Z,25
2017-03-09T13:56:23.902Z,70
2017-03-09T13:57:37.777Z,35
2017-03-09T13:59:05.063Z,70
2017-03-09T14:00:19.240Z,70
2017-03-09T14:01:32.557Z,70
2017-03-09T14:02:46.149Z,70
2017-03-09T14:03:59.482Z,70
2017-03-09T14:05:26.214Z,75
2017-03-09T14:06:39.564Z,70
2017-03-09T14:08:06.288Z,50
2017-03-09T14:09:33.584Z,75
2017-03-09T14:10:46.323Z,70
2017-03-09T14:11:59.042Z,75
2017-03-09T14:13:26.379Z,75
2017-03-09T14:14:39.743Z,75
2017-03-09T14:15:53.137Z,75
2017-03-09T14:17:06.537Z,70
2017-03-09T14:18:20.554Z,70
2017-03-09T14:19:34.048Z,70
2017-03-09T14:20:47.864Z,70
2017-03-09T14:22:02.816Z,75
2017-03-09T14:23:16.368Z,75
2017-03-09T14:24:29.113Z,75
2017-03-09T14:25:42.694Z,75
2017-03-09T14:26:55.977Z,75
2017-03-09T14:28:09.276Z,80
2017-03-09T14:29:22.595Z,50
2017-03-09T14:30:35.878Z,80
2017-03-09T14:31:49.211Z,85
2017-03-09T14:33:02.508Z,85
2017-03-09T14:34:15.824Z,80
2017-03-09T14:35:29.120Z,80
2017-03-09T14:36:41.875Z,65
2017-03-09T14:37:55.175Z,70
2017-03-09T14:39:08.471Z,80
2017-03-09T14:40:20.624Z,70
2017-03-09T14:41:33.961Z,80
2017-03-09T14:43:01.484Z,70
2017-03-09T14:44:28.758Z,60
2017-03-09T14:45:42.067Z,60
2017-03-09T14:46:55.346Z,55
2017-03-09T14:51:03.181Z,25
2017-03-09T14:52:16.470Z,60
2017-03-09T14:53:44.029Z,45
2017-03-09T14:54:57.321Z,65
2017-03-09T14:56:10.612Z,50
2017-03-09T14:57:23.958Z,80
2017-03-09T14:58:53.359Z,70
2017-03-09T15:00:08.384Z,25
2017-03-09T15:01:21.669Z,25
2017-03-09T15:04:15.639Z,35
2017-03-09T15:05:28.941Z,60
2017-03-09T15:06:59.688Z,75
2017-03-09T15:08:13.003Z,80
2017-03-09T15:09:40.267Z,60
2017-03-09T15:10:53.559Z,65
2017-03-09T15:12:06.293Z,65
2017-03-09T15:13:19.619Z,65
2017-03-09T15:14:33.810Z,65
2017-03-09T15:15:47.129Z,60
2017-03-09T15:16:59.869Z,60
2017-03-09T15:18:12.616Z,65
2017-03-09T15:19:25.357Z,40
2017-03-09T15:20:38.681Z,45
2017-03-09T15:21:51.987Z,65
2017-03-09T15:23:05.008Z,65
2017-03-09T15:24:17.803Z,65
2017-03-09T15:25:30.196Z,70
2017-03-09T15:26:57.481Z,65
2017-03-09T15:28:10.763Z,65
2017-03-09T15:29:24.079Z,30
2017-03-09T15:30:37.615Z,60
2017-03-09T15:32:04.316Z,30
2017-03-09T15:33:17.610Z,50
2017-03-09T15:35:58.196Z,30
2017-03-09T15:37:10.940Z,30
2017-03-09T15:38:23.125Z,30
2017-03-09T15:39:36.445Z,50
2017-03-09T15:40:49.498Z,55
2017-03-09T15:42:16.806Z,50
2017-03-09T15:43:30.116Z,30
2017-03-09T15:44:43.038Z,50
2017-03-09T15:45:56.570Z,35
2017-03-09T15:47:09.909Z,30
2017-03-09T15:49:50.499Z,30
2017-03-09T15:51:03.466Z,50
2017-03-09T15:52:16.214Z,25
2017-03-09T15:53:29.504Z,50
2017-03-09T15:54:42.931Z,50
2017-03-09T15:55:56.326Z,50
2017-03-09T15:57:09.645Z,50
2017-03-09T15:58:22.947Z,35
2017-03-09T15:59:36.238Z,30
2017-03-09T16:00:49.557Z,30
2017-03-09T16:02:02.906Z,25
2017-03-09T16:03:15.645Z,20
2017-03-09T16:04:28.943Z,20
2017-03-09T16:05:42.255Z,20
2017-03-09T16:06:55.770Z,20
2017-03-09T16:08:08.510Z,20
2017-03-09T16:09:21.845Z,25
2017-03-09T16:10:35.198Z,40
2017-03-09T16:11:48.515Z,40
2017-03-09T16:13:01.857Z,40
2017-03-09T16:14:15.176Z,35
2017-03-09T16:15:27.930Z,35
2017-03-09T16:16:41.255Z,35
2017-03-09T16:17:54.756Z,35
2017-03-09T16:19:08.083Z,35
2017-03-09T16:20:21.396Z,35
2017-03-09T16:21:34.145Z,35
2017-03-09T16:22:47.482Z,35
2017-03-09T16:24:00.838Z,35
2017-03-09T16:25:14.144Z,35
2017-03-09T16:26:27.456Z,30
2017-03-09T16:27:40.908Z,30
2017-03-09T16:28:54.294Z,35
2017-03-09T16:30:07.043Z,35
2017-03-09T16:31:20.347Z,35
2017-03-09T16:32:33.088Z,35
2017-03-09T16:33:45.867Z,35
2017-03-09T16:34:59.175Z,35
2017-03-09T16:36:11.905Z,35
2017-03-09T16:37:24.661Z,25
2017-03-09T16:38:37.992Z,30
2017-03-09T16:39:51.288Z,30
2017-03-09T16:41:04.040Z,30
2017-03-09T16:42:17.376Z,30
2017-03-09T16:43:30.698Z,30
2017-03-09T16:44:57.993Z,30
2017-03-09T16:46:25.322Z,25
2017-03-09T16:47:37.051Z,25
2017-03-09T16:49:04.360Z,20
2017-03-09T16:50:17.313Z,20
2017-03-09T16:51:30.068Z,25
2017-03-09T16:52:42.802Z,20
2017-03-09T16:53:56.144Z,30
2017-03-09T16:55:09.459Z,30
2017-03-09T16:56:22.784Z,35
2017-03-09T16:57:36.105Z,35
2017-03-09T16:58:49.429Z,30
2017-03-09T17:00:02.741Z,35
2017-03-09T17:01:15.523Z,35
2017-03-09T17:02:28.268Z,25
2017-03-09T17:03:40.989Z,25
2017-03-09T17:04:54.284Z,25
2017-03-09T17:06:07.597Z,35
2017-03-09T17:07:20.921Z,30
2017-03-09T17:08:34.229Z,30
2017-03-09T17:09:47.551Z,25
2017-03-09T17:11:00.318Z,25
2017-03-09T17:12:12.512Z,25
2017-03-09T17:13:25.266Z,25
2017-03-09T17:14:38.588Z,25
2017-03-09T17:15:51.900Z,30
2017-03-09T17:17:05.494Z,30
2017-03-09T17:18:18.844Z,30
2017-03-09T17:19:32.176Z,30
2017-03-09T17:20:44.925Z,30
2017-03-09T17:21:58.252Z,30
2017-03-09T17:23:11.764Z,20
2017-03-09T17:24:24.567Z,20
2017-03-09T17:25:37.604Z,20
2017-03-09T17:26:51.133Z,30
2017-03-09T17:28:04.694Z,30
2017-03-09T17:29:32.568Z,30
2017-03-09T17:30:46.132Z,25
2017-03-09T17:31:59.462Z,20
2017-03-09T17:34:53.460Z,30
2017-03-09T17:36:06.794Z,20
2017-03-09T17:37:19.558Z,20
2017-03-09T17:38:32.533Z,20
2017-03-09T17:39:45.906Z,25
2017-03-09T17:40:59.236Z,30
2017-03-09T17:42:40.511Z,30
2017-03-09T17:43:53.463Z,25
2017-03-09T17:45:06.186Z,25
2017-03-09T17:46:18.932Z,25
2017-03-09T17:47:32.241Z,25
2017-03-09T17:48:45.785Z,25
2017-03-09T17:49:59.135Z,25
2017-03-09T17:51:11.865Z,25
2017-03-09T17:52:25.212Z,25
2017-03-09T17:53:37.975Z,25
2017-03-09T17:54:51.516Z,25
2017-03-09T17:56:18.792Z,25
2017-03-09T17:57:31.534Z,25
2017-03-09T17:58:44.889Z,25
2017-03-09T17:59:58.208Z,25
2017-03-09T18:01:11.528Z,25
2017-03-09T18:03:52.128Z,30
2017-03-09T18:05:05.079Z,20
2017-03-09T18:06:18.018Z,20
2017-03-09T18:07:45.465Z,30
2017-03-09T18:08:59.007Z,30
2017-03-09T18:10:12.541Z,30
2017-03-09T18:11:26.055Z,30
2017-03-09T18:14:20.960Z,30
2017-03-09T18:15:34.650Z,25
2017-03-09T18:16:47.830Z,20
2017-03-09T18:18:00.784Z,25
2017-03-09T18:19:28.237Z,15
2017-03-09T18:22:08.615Z,15
2017-03-09T18:23:50.008Z,15
2017-03-09T18:25:03.528Z,15
2017-03-09T18:26:16.682Z,15
2017-03-09T18:27:29.613Z,15
2017-03-09T18:28:57.064Z,25
2017-03-09T18:30:10.615Z,15
2017-03-09T18:31:24.131Z,15
2017-03-09T18:32:37.681Z,15
2017-03-09T18:33:51.199Z,15
2017-03-09T18:35:04.558Z,15
2017-03-09T18:36:17.515Z,25
2017-03-09T18:37:30.898Z,25
2017-03-09T18:38:44.265Z,30
2017-03-09T18:39:57.039Z,30